sensor_id;sensor_type;location;lat;lon;timestamp;temperature;humidity
8707;DHT22;4390;49.302;9.306;2023-03-26T00:01:16;8.00;98.30
8707;DHT22;4390;49.302;9.306;2023-03-26T00:03:43;8.10;98.30
8707;DHT22;4390;49.302;9.306;2023-03-26T00:06:20;8.10;98.30
8707;DHT22;4390;49.302;9.306;2023-03-26T00:08:51;8.10;98.30
8707;DHT22;4390;49.302;9.306;2023-03-26T00:11:20;8.10;98.30
8707;DHT22;4390;49.302;9.306;2023-03-26T00:13:48;8.10;98.30
8707;DHT22;4390;49.302;9.306;2023-03-26T00:16:16;7.90;98.30
8707;DHT22;4390;49.302;9.306;2023-03-26T00:18:44;7.80;98.30
8707;DHT22;4390;49.302;9.306;2023-03-26T00:21:13;7.80;98.30
8707;DHT22;4390;49.302;9.306;2023-03-26T00:23:40;7.80;98.30
8707;DHT22;4390;49.302;9.306;2023-03-26T00:26:08;7.80;98.30
8707;DHT22;4390;49.302;9.306;2023-03-26T00:28:37;8.00;98.30
8707;DHT22;4390;49.302;9.306;2023-03-26T00:31:09;8.00;98.30
8707;DHT22;4390;49.302;9.306;2023-03-26T00:33:36;8.10;98.30
8707;DHT22;4390;49.302;9.306;2023-03-26T00:36:09;8.10;98.30
8707;DHT22;4390;49.302;9.306;2023-03-26T00:38:37;8.00;98.30
8707;DHT22;4390;49.302;9.306;2023-03-26T00:41:06;8.00;98.30
8707;DHT22;4390;49.302;9.306;2023-03-26T00:43:34;8.10;98.30
8707;DHT22;4390;49.302;9.306;2023-03-26T00:46:01;8.20;98.30
8707;DHT22;4390;49.302;9.306;2023-03-26T00:48:29;8.30;98.30
8707;DHT22;4390;49.302;9.306;2023-03-26T00:51:11;8.30;98.30
8707;DHT22;4390;49.302;9.306;2023-03-26T00:53:41;8.50;98.10
8707;DHT22;4390;49.302;9.306;2023-03-26T00:56:08;8.50;98.30
8707;DHT22;4390;49.302;9.306;2023-03-26T00:58:36;8.30;98.30
8707;DHT22;4390;49.302;9.306;2023-03-26T01:01:09;8.40;98.30
8707;DHT22;4390;49.302;9.306;2023-03-26T01:03:37;8.40;98.30
8707;DHT22;4390;49.302;9.306;2023-03-26T01:06:10;8.40;98.30
8707;DHT22;4390;49.302;9.306;2023-03-26T01:08:47;8.30;98.30
8707;DHT22;4390;49.302;9.306;2023-03-26T01:11:20;8.40;98.30
8707;DHT22;4390;49.302;9.306;2023-03-26T01:14:04;8.30;98.30
8707;DHT22;4390;49.302;9.306;2023-03-26T01:16:40;8.20;98.30
8707;DHT22;4390;49.302;9.306;2023-03-26T01:21:44;8.40;98.30
8707;DHT22;4390;49.302;9.306;2023-03-26T01:24:12;8.20;98.30
8707;DHT22;4390;49.302;9.306;2023-03-26T01:29:40;8.00;98.30
8707;DHT22;4390;49.302;9.306;2023-03-26T01:35:42;8.00;98.30
8707;DHT22;4390;49.302;9.306;2023-03-26T01:41:32;7.70;98.30
8707;DHT22;4390;49.302;9.306;2023-03-26T01:44:15;7.70;98.30
8707;DHT22;4390;49.302;9.306;2023-03-26T01:46:46;7.60;98.30
8707;DHT22;4390;49.302;9.306;2023-03-26T01:49:14;7.50;98.30
8707;DHT22;4390;49.302;9.306;2023-03-26T01:51:41;7.50;98.30
8707;DHT22;4390;49.302;9.306;2023-03-26T01:54:15;7.70;98.30
8707;DHT22;4390;49.302;9.306;2023-03-26T01:56:54;7.60;98.30
8707;DHT22;4390;49.302;9.306;2023-03-26T02:02:10;7.50;98.30
8707;DHT22;4390;49.302;9.306;2023-03-26T02:04:59;7.50;98.30
8707;DHT22;4390;49.302;9.306;2023-03-26T02:07:36;7.40;98.30
8707;DHT22;4390;49.302;9.306;2023-03-26T02:10:29;7.30;98.30
8707;DHT22;4390;49.302;9.306;2023-03-26T02:12:56;7.30;98.30
8707;DHT22;4390;49.302;9.306;2023-03-26T02:15:24;7.20;98.30
8707;DHT22;4390;49.302;9.306;2023-03-26T02:17:51;7.20;98.30
8707;DHT22;4390;49.302;9.306;2023-03-26T02:20:20;7.30;98.30
8707;DHT22;4390;49.302;9.306;2023-03-26T02:22:47;7.50;98.30
8707;DHT22;4390;49.302;9.306;2023-03-26T02:25:19;7.50;98.30
8707;DHT22;4390;49.302;9.306;2023-03-26T02:27:49;7.30;98.30
8707;DHT22;4390;49.302;9.306;2023-03-26T02:30:24;7.20;98.30
8707;DHT22;4390;49.302;9.306;2023-03-26T02:32:54;7.30;98.30
8707;DHT22;4390;49.302;9.306;2023-03-26T02:35:27;7.40;98.30
8707;DHT22;4390;49.302;9.306;2023-03-26T02:37:57;7.30;98.30
8707;DHT22;4390;49.302;9.306;2023-03-26T02:40:24;7.20;98.30
8707;DHT22;4390;49.302;9.306;2023-03-26T02:42:51;7.10;98.30
8707;DHT22;4390;49.302;9.306;2023-03-26T02:45:18;7.10;98.30
8707;DHT22;4390;49.302;9.306;2023-03-26T02:47:48;7.10;98.30
8707;DHT22;4390;49.302;9.306;2023-03-26T02:50:51;7.10;98.30
8707;DHT22;4390;49.302;9.306;2023-03-26T02:53:47;7.00;98.30
8707;DHT22;4390;49.302;9.306;2023-03-26T02:56:33;7.00;98.30
8707;DHT22;4390;49.302;9.306;2023-03-26T02:59:18;6.90;98.30
8707;DHT22;4390;49.302;9.306;2023-03-26T03:01:54;7.00;98.30
8707;DHT22;4390;49.302;9.306;2023-03-26T03:04:21;6.90;98.30
8707;DHT22;4390;49.302;9.306;2023-03-26T03:06:48;7.10;98.30
8707;DHT22;4390;49.302;9.306;2023-03-26T03:09:18;7.00;98.30
8707;DHT22;4390;49.302;9.306;2023-03-26T03:12:08;6.90;98.30
8707;DHT22;4390;49.302;9.306;2023-03-26T03:14:35;7.00;98.30
8707;DHT22;4390;49.302;9.306;2023-03-26T03:17:03;6.90;98.30
8707;DHT22;4390;49.302;9.306;2023-03-26T03:19:30;7.00;98.30
8707;DHT22;4390;49.302;9.306;2023-03-26T03:21:57;6.90;98.30
8707;DHT22;4390;49.302;9.306;2023-03-26T03:24:23;6.60;98.30
8707;DHT22;4390;49.302;9.306;2023-03-26T03:26:52;6.60;98.30
8707;DHT22;4390;49.302;9.306;2023-03-26T03:29:33;6.50;98.30
8707;DHT22;4390;49.302;9.306;2023-03-26T03:32:20;6.50;98.30
8707;DHT22;4390;49.302;9.306;2023-03-26T03:34:49;6.50;98.30
8707;DHT22;4390;49.302;9.306;2023-03-26T03:37:18;6.50;98.30
8707;DHT22;4390;49.302;9.306;2023-03-26T03:39:53;6.60;98.30
8707;DHT22;4390;49.302;9.306;2023-03-26T03:42:21;6.40;98.30
8707;DHT22;4390;49.302;9.306;2023-03-26T03:44:51;6.50;98.30
8707;DHT22;4390;49.302;9.306;2023-03-26T03:47:43;6.40;98.30
8707;DHT22;4390;49.302;9.306;2023-03-26T03:50:11;6.30;98.30
8707;DHT22;4390;49.302;9.306;2023-03-26T03:52:47;6.30;98.30
8707;DHT22;4390;49.302;9.306;2023-03-26T03:55:15;6.50;98.30
8707;DHT22;4390;49.302;9.306;2023-03-26T03:57:50;6.50;98.30
8707;DHT22;4390;49.302;9.306;2023-03-26T04:00:19;6.50;98.30
8707;DHT22;4390;49.302;9.306;2023-03-26T04:03:02;6.40;98.30
8707;DHT22;4390;49.302;9.306;2023-03-26T04:05:32;6.30;98.30
8707;DHT22;4390;49.302;9.306;2023-03-26T04:07:59;6.40;98.30
8707;DHT22;4390;49.302;9.306;2023-03-26T04:10:48;6.40;98.30
8707;DHT22;4390;49.302;9.306;2023-03-26T04:13:35;6.60;98.30
8707;DHT22;4390;49.302;9.306;2023-03-26T04:16:21;6.60;98.30
8707;DHT22;4390;49.302;9.306;2023-03-26T04:18:48;6.80;98.30
8707;DHT22;4390;49.302;9.306;2023-03-26T04:21:14;6.80;98.30
8707;DHT22;4390;49.302;9.306;2023-03-26T04:23:46;6.90;98.30
8707;DHT22;4390;49.302;9.306;2023-03-26T04:26:26;6.90;98.30
8707;DHT22;4390;49.302;9.306;2023-03-26T04:29:03;7.00;98.30
8707;DHT22;4390;49.302;9.306;2023-03-26T04:31:34;6.90;98.30
8707;DHT22;4390;49.302;9.306;2023-03-26T04:34:06;7.00;98.30
8707;DHT22;4390;49.302;9.306;2023-03-26T04:36:49;6.80;98.30
8707;DHT22;4390;49.302;9.306;2023-03-26T04:39:18;6.70;98.30
8707;DHT22;4390;49.302;9.306;2023-03-26T04:42:03;6.60;98.30
8707;DHT22;4390;49.302;9.306;2023-03-26T04:44:43;6.60;98.30
8707;DHT22;4390;49.302;9.306;2023-03-26T04:47:12;6.80;98.30
8707;DHT22;4390;49.302;9.306;2023-03-26T04:49:45;6.90;98.30
8707;DHT22;4390;49.302;9.306;2023-03-26T04:52:14;6.80;98.30
8707;DHT22;4390;49.302;9.306;2023-03-26T04:55:00;6.80;98.30
8707;DHT22;4390;49.302;9.306;2023-03-26T04:57:38;6.80;98.30
8707;DHT22;4390;49.302;9.306;2023-03-26T05:00:15;6.90;98.30
8707;DHT22;4390;49.302;9.306;2023-03-26T05:02:51;6.80;98.30
8707;DHT22;4390;49.302;9.306;2023-03-26T05:05:19;6.70;98.30
8707;DHT22;4390;49.302;9.306;2023-03-26T05:07:48;6.80;98.30
8707;DHT22;4390;49.302;9.306;2023-03-26T05:10:17;6.90;98.30
8707;DHT22;4390;49.302;9.306;2023-03-26T05:13:01;7.10;98.30
8707;DHT22;4390;49.302;9.306;2023-03-26T05:15:34;7.00;98.30
8707;DHT22;4390;49.302;9.306;2023-03-26T05:18:11;7.10;98.30
8707;DHT22;4390;49.302;9.306;2023-03-26T05:20:41;7.00;98.30
8707;DHT22;4390;49.302;9.306;2023-03-26T05:23:09;7.10;98.30
8707;DHT22;4390;49.302;9.306;2023-03-26T05:25:40;7.00;98.30
8707;DHT22;4390;49.302;9.306;2023-03-26T05:28:14;6.70;98.30
8707;DHT22;4390;49.302;9.306;2023-03-26T05:30:54;6.70;98.30
8707;DHT22;4390;49.302;9.306;2023-03-26T05:33:27;6.60;98.30
8707;DHT22;4390;49.302;9.306;2023-03-26T05:36:04;6.70;98.30
8707;DHT22;4390;49.302;9.306;2023-03-26T05:38:35;7.00;98.30
8707;DHT22;4390;49.302;9.306;2023-03-26T05:41:06;6.90;98.30
8707;DHT22;4390;49.302;9.306;2023-03-26T05:43:37;6.90;98.30
8707;DHT22;4390;49.302;9.306;2023-03-26T05:46:30;6.80;98.30
8707;DHT22;4390;49.302;9.306;2023-03-26T05:48:58;6.80;98.30
8707;DHT22;4390;49.302;9.306;2023-03-26T05:51:28;7.00;98.30
8707;DHT22;4390;49.302;9.306;2023-03-26T05:54:17;6.80;98.30
8707;DHT22;4390;49.302;9.306;2023-03-26T05:57:07;6.90;98.30
8707;DHT22;4390;49.302;9.306;2023-03-26T05:59:54;7.00;98.30
8707;DHT22;4390;49.302;9.306;2023-03-26T06:02:41;7.20;98.30
8707;DHT22;4390;49.302;9.306;2023-03-26T06:05:35;7.00;98.30
8707;DHT22;4390;49.302;9.306;2023-03-26T06:08:17;7.20;98.30
8707;DHT22;4390;49.302;9.306;2023-03-26T06:10:57;7.00;98.30
8707;DHT22;4390;49.302;9.306;2023-03-26T06:13:24;7.10;98.30
8707;DHT22;4390;49.302;9.306;2023-03-26T06:15:52;7.10;98.30
8707;DHT22;4390;49.302;9.306;2023-03-26T06:18:25;7.10;98.30
8707;DHT22;4390;49.302;9.306;2023-03-26T06:21:14;7.20;98.30
8707;DHT22;4390;49.302;9.306;2023-03-26T06:23:50;7.20;98.30
8707;DHT22;4390;49.302;9.306;2023-03-26T06:26:49;7.30;98.30
8707;DHT22;4390;49.302;9.306;2023-03-26T06:29:33;7.40;98.30
8707;DHT22;4390;49.302;9.306;2023-03-26T06:32:25;7.40;98.30
8707;DHT22;4390;49.302;9.306;2023-03-26T06:34:58;7.50;98.30
8707;DHT22;4390;49.302;9.306;2023-03-26T06:37:25;7.60;98.30
8707;DHT22;4390;49.302;9.306;2023-03-26T06:39:56;7.40;98.30
8707;DHT22;4390;49.302;9.306;2023-03-26T06:42:42;7.40;98.30
8707;DHT22;4390;49.302;9.306;2023-03-26T06:45:50;7.50;98.30
8707;DHT22;4390;49.302;9.306;2023-03-26T06:48:35;7.40;98.30
8707;DHT22;4390;49.302;9.306;2023-03-26T06:51:25;7.40;98.30
8707;DHT22;4390;49.302;9.306;2023-03-26T06:54:08;7.30;98.30
8707;DHT22;4390;49.302;9.306;2023-03-26T06:56:55;7.40;98.30
8707;DHT22;4390;49.302;9.306;2023-03-26T06:59:54;7.50;98.30
8707;DHT22;4390;49.302;9.306;2023-03-26T07:02:44;7.50;98.30
8707;DHT22;4390;49.302;9.306;2023-03-26T07:05:40;7.60;98.30
8707;DHT22;4390;49.302;9.306;2023-03-26T07:08:33;7.60;98.30
8707;DHT22;4390;49.302;9.306;2023-03-26T07:11:29;7.50;98.30
8707;DHT22;4390;49.302;9.306;2023-03-26T07:14:14;7.60;98.30
8707;DHT22;4390;49.302;9.306;2023-03-26T07:16:48;7.50;98.30
8707;DHT22;4390;49.302;9.306;2023-03-26T07:19:38;7.60;98.30
8707;DHT22;4390;49.302;9.306;2023-03-26T07:22:05;7.80;98.30
8707;DHT22;4390;49.302;9.306;2023-03-26T07:24:50;7.90;98.30
8707;DHT22;4390;49.302;9.306;2023-03-26T07:28:12;8.00;98.30
8707;DHT22;4390;49.302;9.306;2023-03-26T07:34:03;8.00;98.30
8707;DHT22;4390;49.302;9.306;2023-03-26T07:37:17;8.10;98.30
8707;DHT22;4390;49.302;9.306;2023-03-26T07:40:20;8.40;98.30
8707;DHT22;4390;49.302;9.306;2023-03-26T07:43:49;8.50;98.30
8707;DHT22;4390;49.302;9.306;2023-03-26T07:46:28;8.50;98.30
8707;DHT22;4390;49.302;9.306;2023-03-26T07:49:22;8.50;98.30
8707;DHT22;4390;49.302;9.306;2023-03-26T07:52:17;8.70;98.30
8707;DHT22;4390;49.302;9.306;2023-03-26T07:54:50;8.80;98.30
8707;DHT22;4390;49.302;9.306;2023-03-26T07:58:04;8.60;98.30
8707;DHT22;4390;49.302;9.306;2023-03-26T08:01:19;8.50;98.30
8707;DHT22;4390;49.302;9.306;2023-03-26T08:04:02;8.70;98.30
8707;DHT22;4390;49.302;9.306;2023-03-26T08:10:26;8.60;98.30
8707;DHT22;4390;49.302;9.306;2023-03-26T08:13:23;8.70;98.30
8707;DHT22;4390;49.302;9.306;2023-03-26T08:22:05;9.00;98.30
8707;DHT22;4390;49.302;9.306;2023-03-26T08:25:20;8.90;98.30
8707;DHT22;4390;49.302;9.306;2023-03-26T08:28:16;8.90;98.30
8707;DHT22;4390;49.302;9.306;2023-03-26T08:30:47;9.00;98.30
8707;DHT22;4390;49.302;9.306;2023-03-26T08:33:17;9.10;98.30
8707;DHT22;4390;49.302;9.306;2023-03-26T08:35:45;8.90;98.30
8707;DHT22;4390;49.302;9.306;2023-03-26T08:38:17;8.90;98.30
8707;DHT22;4390;49.302;9.306;2023-03-26T08:47:04;8.70;97.60
8707;DHT22;4390;49.302;9.306;2023-03-26T08:50:08;8.60;97.90
8707;DHT22;4390;49.302;9.306;2023-03-26T08:55:52;8.80;98.20
8707;DHT22;4390;49.302;9.306;2023-03-26T09:10:06;9.50;96.20
8707;DHT22;4390;49.302;9.306;2023-03-26T09:15:33;9.00;96.00
8707;DHT22;4390;49.302;9.306;2023-03-26T09:18:27;9.10;96.30
8707;DHT22;4390;49.302;9.306;2023-03-26T09:24:36;9.10;96.80
8707;DHT22;4390;49.302;9.306;2023-03-26T09:30:23;9.50;97.10
8707;DHT22;4390;49.302;9.306;2023-03-26T09:41:13;9.70;96.50
8707;DHT22;4390;49.302;9.306;2023-03-26T09:44:05;9.60;96.90
8707;DHT22;4390;49.302;9.306;2023-03-26T09:55:23;9.30;97.20
8707;DHT22;4390;49.302;9.306;2023-03-26T10:00:49;9.50;96.60
8707;DHT22;4390;49.302;9.306;2023-03-26T10:03:29;9.40;97.00
8707;DHT22;4390;49.302;9.306;2023-03-26T10:06:48;9.30;97.30
8707;DHT22;4390;49.302;9.306;2023-03-26T10:09:28;9.40;97.80
8707;DHT22;4390;49.302;9.306;2023-03-26T10:12:18;9.60;96.90
8707;DHT22;4390;49.302;9.306;2023-03-26T10:17:59;9.00;98.00
8707;DHT22;4390;49.302;9.306;2023-03-26T10:21:10;8.80;98.30
8707;DHT22;4390;49.302;9.306;2023-03-26T10:26:29;9.00;98.30
8707;DHT22;4390;49.302;9.306;2023-03-26T10:29:19;9.40;98.30
8707;DHT22;4390;49.302;9.306;2023-03-26T10:32:12;9.60;97.70
8707;DHT22;4390;49.302;9.306;2023-03-26T10:34:57;9.50;97.80
8707;DHT22;4390;49.302;9.306;2023-03-26T10:38:12;9.30;98.30
8707;DHT22;4390;49.302;9.306;2023-03-26T10:41:05;9.20;98.30
8707;DHT22;4390;49.302;9.306;2023-03-26T10:43:58;9.40;98.30
8707;DHT22;4390;49.302;9.306;2023-03-26T10:46:50;9.50;98.30
8707;DHT22;4390;49.302;9.306;2023-03-26T10:52:20;9.60;98.30
8707;DHT22;4390;49.302;9.306;2023-03-26T10:54:57;10.10;98.30
8707;DHT22;4390;49.302;9.306;2023-03-26T10:57:50;10.80;98.30
8707;DHT22;4390;49.302;9.306;2023-03-26T11:00:20;12.30;97.90
8707;DHT22;4390;49.302;9.306;2023-03-26T11:05:47;15.60;90.70
8707;DHT22;4390;49.302;9.306;2023-03-26T11:14:09;19.00;83.30
8707;DHT22;4390;49.302;9.306;2023-03-26T11:28:32;15.30;86.20
8707;DHT22;4390;49.302;9.306;2023-03-26T11:33:56;15.70;87.00
8707;DHT22;4390;49.302;9.306;2023-03-26T11:36:30;15.80;85.60
8707;DHT22;4390;49.302;9.306;2023-03-26T11:39:02;15.90;86.00
8707;DHT22;4390;49.302;9.306;2023-03-26T11:41:31;15.50;84.60
8707;DHT22;4390;49.302;9.306;2023-03-26T11:44:26;14.90;86.20
8707;DHT22;4390;49.302;9.306;2023-03-26T11:47:00;14.10;86.40
8707;DHT22;4390;49.302;9.306;2023-03-26T11:49:30;13.50;88.00
8707;DHT22;4390;49.302;9.306;2023-03-26T11:51:57;13.30;87.90
8707;DHT22;4390;49.302;9.306;2023-03-26T11:54:24;12.90;89.30
8707;DHT22;4390;49.302;9.306;2023-03-26T11:56:57;12.60;89.70
8707;DHT22;4390;49.302;9.306;2023-03-26T11:59:37;12.40;91.80
8707;DHT22;4390;49.302;9.306;2023-03-26T12:02:29;12.30;92.10
8707;DHT22;4390;49.302;9.306;2023-03-26T12:07:46;11.90;91.80
8707;DHT22;4390;49.302;9.306;2023-03-26T12:10:38;11.80;92.00
8707;DHT22;4390;49.302;9.306;2023-03-26T12:15:46;11.80;93.50
8707;DHT22;4390;49.302;9.306;2023-03-26T12:18:22;11.80;92.20
8707;DHT22;4390;49.302;9.306;2023-03-26T12:21:05;11.60;93.00
8707;DHT22;4390;49.302;9.306;2023-03-26T12:23:43;11.60;92.20
8707;DHT22;4390;49.302;9.306;2023-03-26T12:26:27;11.20;91.70
8707;DHT22;4390;49.302;9.306;2023-03-26T12:29:08;11.00;91.70
8707;DHT22;4390;49.302;9.306;2023-03-26T12:32:05;10.90;91.10
8707;DHT22;4390;49.302;9.306;2023-03-26T12:34:34;11.40;88.30
8707;DHT22;4390;49.302;9.306;2023-03-26T12:37:03;11.80;86.50
8707;DHT22;4390;49.302;9.306;2023-03-26T12:39:41;12.30;84.10
8707;DHT22;4390;49.302;9.306;2023-03-26T12:42:31;12.80;83.40
8707;DHT22;4390;49.302;9.306;2023-03-26T12:45:21;13.00;81.40
8707;DHT22;4390;49.302;9.306;2023-03-26T12:47:51;13.30;79.50
8707;DHT22;4390;49.302;9.306;2023-03-26T12:50:56;12.90;77.80
8707;DHT22;4390;49.302;9.306;2023-03-26T12:53:36;13.10;78.60
8707;DHT22;4390;49.302;9.306;2023-03-26T12:56:15;13.30;78.10
8707;DHT22;4390;49.302;9.306;2023-03-26T13:04:26;13.00;77.30
8707;DHT22;4390;49.302;9.306;2023-03-26T13:06:57;12.90;76.90
8707;DHT22;4390;49.302;9.306;2023-03-26T13:09:44;13.20;76.50
8707;DHT22;4390;49.302;9.306;2023-03-26T13:12:34;13.70;75.40
8707;DHT22;4390;49.302;9.306;2023-03-26T13:15:16;13.60;75.00
8707;DHT22;4390;49.302;9.306;2023-03-26T13:21:11;13.50;75.30
8707;DHT22;4390;49.302;9.306;2023-03-26T13:26:13;12.90;75.30
8707;DHT22;4390;49.302;9.306;2023-03-26T13:28:49;13.00;76.30
8707;DHT22;4390;49.302;9.306;2023-03-26T13:34:51;12.80;77.00
8707;DHT22;4390;49.302;9.306;2023-03-26T13:48:16;13.20;76.70
8707;DHT22;4390;49.302;9.306;2023-03-26T13:50:50;13.40;77.00
8707;DHT22;4390;49.302;9.306;2023-03-26T13:53:33;13.00;76.10
8707;DHT22;4390;49.302;9.306;2023-03-26T13:56:03;13.10;77.80
8707;DHT22;4390;49.302;9.306;2023-03-26T13:58:45;13.10;77.20
8707;DHT22;4390;49.302;9.306;2023-03-26T14:01:16;12.90;77.00
8707;DHT22;4390;49.302;9.306;2023-03-26T14:06:28;13.60;76.30
8707;DHT22;4390;49.302;9.306;2023-03-26T14:09:06;13.50;76.00
8707;DHT22;4390;49.302;9.306;2023-03-26T14:14:41;13.30;76.70
8707;DHT22;4390;49.302;9.306;2023-03-26T14:25:31;12.70;78.30
8707;DHT22;4390;49.302;9.306;2023-03-26T14:34:26;12.40;77.30
8707;DHT22;4390;49.302;9.306;2023-03-26T14:42:35;12.30;79.30
8707;DHT22;4390;49.302;9.306;2023-03-26T14:51:04;11.80;79.10
8707;DHT22;4390;49.302;9.306;2023-03-26T14:53:41;11.60;78.70
8707;DHT22;4390;49.302;9.306;2023-03-26T14:59:06;11.60;79.30
8707;DHT22;4390;49.302;9.306;2023-03-26T15:05:07;11.70;79.00
8707;DHT22;4390;49.302;9.306;2023-03-26T15:11:00;11.50;79.60
8707;DHT22;4390;49.302;9.306;2023-03-26T15:14:02;10.80;81.70
8707;DHT22;4390;49.302;9.306;2023-03-26T15:19:54;9.90;84.00
8707;DHT22;4390;49.302;9.306;2023-03-26T15:28:43;9.10;89.20
8707;DHT22;4390;49.302;9.306;2023-03-26T15:34:11;8.70;91.60
8707;DHT22;4390;49.302;9.306;2023-03-26T15:37:09;8.60;92.80
8707;DHT22;4390;49.302;9.306;2023-03-26T15:40:07;8.50;93.20
8707;DHT22;4390;49.302;9.306;2023-03-26T15:45:35;8.50;93.80
8707;DHT22;4390;49.302;9.306;2023-03-26T15:50:47;7.90;95.30
8707;DHT22;4390;49.302;9.306;2023-03-26T15:53:22;7.80;96.50
8707;DHT22;4390;49.302;9.306;2023-03-26T15:58:30;7.90;97.80
8707;DHT22;4390;49.302;9.306;2023-03-26T16:01:37;7.80;97.90
8707;DHT22;4390;49.302;9.306;2023-03-26T16:10:08;7.40;98.30
8707;DHT22;4390;49.302;9.306;2023-03-26T16:15:28;7.40;98.30
8707;DHT22;4390;49.302;9.306;2023-03-26T16:20:46;7.90;97.20
8707;DHT22;4390;49.302;9.306;2023-03-26T16:23:24;7.90;96.50
8707;DHT22;4390;49.302;9.306;2023-03-26T16:36:35;7.60;97.20
8707;DHT22;4390;49.302;9.306;2023-03-26T16:46:50;7.20;97.10
8707;DHT22;4390;49.302;9.306;2023-03-26T16:49:51;7.20;98.20
8707;DHT22;4390;49.302;9.306;2023-03-26T16:52:53;7.50;97.80
8707;DHT22;4390;49.302;9.306;2023-03-26T16:55:27;7.30;97.70
8707;DHT22;4390;49.302;9.306;2023-03-26T16:58:36;7.30;97.70
8707;DHT22;4390;49.302;9.306;2023-03-26T17:01:26;7.50;97.50
8707;DHT22;4390;49.302;9.306;2023-03-26T17:04:09;7.50;97.20
8707;DHT22;4390;49.302;9.306;2023-03-26T17:09:40;7.20;97.60
8707;DHT22;4390;49.302;9.306;2023-03-26T17:12:24;7.40;97.40
8707;DHT22;4390;49.302;9.306;2023-03-26T17:15:12;7.20;97.40
8707;DHT22;4390;49.302;9.306;2023-03-26T17:20:34;7.00;98.30
8707;DHT22;4390;49.302;9.306;2023-03-26T17:23:24;7.10;98.30
8707;DHT22;4390;49.302;9.306;2023-03-26T17:29:09;6.40;98.30
8707;DHT22;4390;49.302;9.306;2023-03-26T17:31:44;6.00;98.30
8707;DHT22;4390;49.302;9.306;2023-03-26T17:37:30;6.30;98.30
8707;DHT22;4390;49.302;9.306;2023-03-26T17:47:38;6.60;98.30
8707;DHT22;4390;49.302;9.306;2023-03-26T17:50:13;6.90;98.30
8707;DHT22;4390;49.302;9.306;2023-03-26T17:55:25;6.90;98.30
8707;DHT22;4390;49.302;9.306;2023-03-26T17:58:01;6.80;98.30
8707;DHT22;4390;49.302;9.306;2023-03-26T18:00:34;6.80;98.30
8707;DHT22;4390;49.302;9.306;2023-03-26T18:03:23;6.70;98.30
8707;DHT22;4390;49.302;9.306;2023-03-26T18:06:04;6.60;98.30
8707;DHT22;4390;49.302;9.306;2023-03-26T18:16:53;6.80;98.30
8707;DHT22;4390;49.302;9.306;2023-03-26T18:19:21;7.00;98.30
8707;DHT22;4390;49.302;9.306;2023-03-26T18:21:51;6.90;98.30
8707;DHT22;4390;49.302;9.306;2023-03-26T18:24:28;6.60;98.30
8707;DHT22;4390;49.302;9.306;2023-03-26T18:26:58;6.70;98.30
8707;DHT22;4390;49.302;9.306;2023-03-26T18:29:35;6.70;98.30
8707;DHT22;4390;49.302;9.306;2023-03-26T18:32:23;6.60;98.30
8707;DHT22;4390;49.302;9.306;2023-03-26T18:35:13;6.50;98.30
8707;DHT22;4390;49.302;9.306;2023-03-26T18:37:42;6.50;98.30
8707;DHT22;4390;49.302;9.306;2023-03-26T18:40:16;6.80;98.30
8707;DHT22;4390;49.302;9.306;2023-03-26T18:42:50;6.80;98.30
8707;DHT22;4390;49.302;9.306;2023-03-26T18:45:25;6.90;98.30
8707;DHT22;4390;49.302;9.306;2023-03-26T18:47:57;7.20;98.30
8707;DHT22;4390;49.302;9.306;2023-03-26T18:50:34;7.20;98.30
8707;DHT22;4390;49.302;9.306;2023-03-26T18:53:05;7.20;98.30
8707;DHT22;4390;49.302;9.306;2023-03-26T18:55:34;7.20;98.30
8707;DHT22;4390;49.302;9.306;2023-03-26T18:58:20;7.30;98.30
8707;DHT22;4390;49.302;9.306;2023-03-26T19:00:48;7.30;98.30
8707;DHT22;4390;49.302;9.306;2023-03-26T19:03:20;7.10;98.30
8707;DHT22;4390;49.302;9.306;2023-03-26T19:05:49;7.00;98.30
8707;DHT22;4390;49.302;9.306;2023-03-26T19:08:16;6.90;98.30
8707;DHT22;4390;49.302;9.306;2023-03-26T19:10:44;6.90;98.30
8707;DHT22;4390;49.302;9.306;2023-03-26T19:13:14;7.10;98.30
8707;DHT22;4390;49.302;9.306;2023-03-26T19:15:43;7.10;98.30
8707;DHT22;4390;49.302;9.306;2023-03-26T19:18:16;7.30;98.30
8707;DHT22;4390;49.302;9.306;2023-03-26T19:20:48;7.50;98.30
8707;DHT22;4390;49.302;9.306;2023-03-26T19:23:21;7.60;98.00
8707;DHT22;4390;49.302;9.306;2023-03-26T19:25:52;7.50;98.00
8707;DHT22;4390;49.302;9.306;2023-03-26T19:28:26;7.60;97.80
8707;DHT22;4390;49.302;9.306;2023-03-26T19:30:56;7.60;97.50
8707;DHT22;4390;49.302;9.306;2023-03-26T19:33:32;7.60;97.40
8707;DHT22;4390;49.302;9.306;2023-03-26T19:36:21;7.50;97.50
8707;DHT22;4390;49.302;9.306;2023-03-26T19:38:52;7.40;98.00
8707;DHT22;4390;49.302;9.306;2023-03-26T19:41:30;7.40;98.00
8707;DHT22;4390;49.302;9.306;2023-03-26T19:44:00;7.50;97.50
8707;DHT22;4390;49.302;9.306;2023-03-26T19:46:32;7.60;97.30
8707;DHT22;4390;49.302;9.306;2023-03-26T19:48:59;7.40;97.50
8707;DHT22;4390;49.302;9.306;2023-03-26T19:51:36;7.30;97.80
8707;DHT22;4390;49.302;9.306;2023-03-26T19:54:12;7.50;97.50
8707;DHT22;4390;49.302;9.306;2023-03-26T19:56:39;7.40;97.70
8707;DHT22;4390;49.302;9.306;2023-03-26T19:59:06;7.30;97.70
8707;DHT22;4390;49.302;9.306;2023-03-26T20:01:33;7.10;97.80
8707;DHT22;4390;49.302;9.306;2023-03-26T20:04:02;7.10;98.20
8707;DHT22;4390;49.302;9.306;2023-03-26T20:06:31;7.10;98.20
8707;DHT22;4390;49.302;9.306;2023-03-26T20:09:09;7.20;97.80
8707;DHT22;4390;49.302;9.306;2023-03-26T20:11:37;7.20;97.80
8707;DHT22;4390;49.302;9.306;2023-03-26T20:14:13;7.10;98.10
8707;DHT22;4390;49.302;9.306;2023-03-26T20:16:47;7.20;98.00
8707;DHT22;4390;49.302;9.306;2023-03-26T20:19:14;7.20;97.90
8707;DHT22;4390;49.302;9.306;2023-03-26T20:21:42;7.30;97.60
8707;DHT22;4390;49.302;9.306;2023-03-26T20:24:15;7.20;97.40
8707;DHT22;4390;49.302;9.306;2023-03-26T20:26:44;7.30;97.40
8707;DHT22;4390;49.302;9.306;2023-03-26T20:29:12;7.20;97.40
8707;DHT22;4390;49.302;9.306;2023-03-26T20:31:39;7.00;97.70
8707;DHT22;4390;49.302;9.306;2023-03-26T20:34:17;6.90;98.20
8707;DHT22;4390;49.302;9.306;2023-03-26T20:36:47;6.90;97.80
8707;DHT22;4390;49.302;9.306;2023-03-26T20:39:23;6.80;98.30
8707;DHT22;4390;49.302;9.306;2023-03-26T20:41:52;6.70;98.30
8707;DHT22;4390;49.302;9.306;2023-03-26T20:44:20;6.70;98.30
8707;DHT22;4390;49.302;9.306;2023-03-26T20:46:53;6.60;98.30
8707;DHT22;4390;49.302;9.306;2023-03-26T20:49:21;6.70;98.30
8707;DHT22;4390;49.302;9.306;2023-03-26T20:51:48;6.60;98.30
8707;DHT22;4390;49.302;9.306;2023-03-26T20:54:24;6.40;98.30
8707;DHT22;4390;49.302;9.306;2023-03-26T20:56:51;6.40;98.30
8707;DHT22;4390;49.302;9.306;2023-03-26T20:59:25;6.40;98.30
8707;DHT22;4390;49.302;9.306;2023-03-26T21:01:54;6.40;98.30
8707;DHT22;4390;49.302;9.306;2023-03-26T21:04:28;6.60;98.30
8707;DHT22;4390;49.302;9.306;2023-03-26T21:06:55;6.70;98.30
8707;DHT22;4390;49.302;9.306;2023-03-26T21:09:33;6.60;98.30
8707;DHT22;4390;49.302;9.306;2023-03-26T21:12:13;6.40;98.30
8707;DHT22;4390;49.302;9.306;2023-03-26T21:14:44;6.30;98.30
8707;DHT22;4390;49.302;9.306;2023-03-26T21:17:17;6.20;98.30
8707;DHT22;4390;49.302;9.306;2023-03-26T21:19:45;6.40;98.30
8707;DHT22;4390;49.302;9.306;2023-03-26T21:22:38;6.50;98.30
8707;DHT22;4390;49.302;9.306;2023-03-26T21:25:33;6.30;98.30
8707;DHT22;4390;49.302;9.306;2023-03-26T21:28:04;6.30;98.30
8707;DHT22;4390;49.302;9.306;2023-03-26T21:30:34;6.00;98.30
8707;DHT22;4390;49.302;9.306;2023-03-26T21:33:01;6.00;98.30
8707;DHT22;4390;49.302;9.306;2023-03-26T21:35:31;6.10;98.30
8707;DHT22;4390;49.302;9.306;2023-03-26T21:38:02;6.50;98.30
8707;DHT22;4390;49.302;9.306;2023-03-26T21:40:30;6.80;98.30
8707;DHT22;4390;49.302;9.306;2023-03-26T21:42:57;6.70;98.30
8707;DHT22;4390;49.302;9.306;2023-03-26T21:45:24;6.70;98.30